createdAt,value
2018-01-12T00:01:12.452Z,67.03
2018-01-12T00:03:40.212Z,199.13
2018-01-12T00:06:07.842Z,80.43
2018-01-12T00:08:35.576Z,98.30
2018-01-12T00:11:03.208Z,134.13
2018-01-12T00:13:30.950Z,83.57
2018-01-12T00:15:58.682Z,76.20
2018-01-12T00:18:26.361Z,75.23
2018-01-12T00:20:54.066Z,306.60
2018-01-12T00:23:21.805Z,94.53
2018-01-12T00:25:49.436Z,149.50
2018-01-12T00:28:17.175Z,90.07
2018-01-12T00:30:44.871Z,113.73
2018-01-12T00:33:12.654Z,180.73
2018-01-12T00:35:40.420Z,143.40
2018-01-12T00:38:08.267Z,94.50
2018-01-12T00:40:36.104Z,52.57
2018-01-12T00:43:03.927Z,43.47
2018-01-12T00:45:31.604Z,56.60
2018-01-12T00:47:59.399Z,118.47
2018-01-12T00:50:27.238Z,70.10
2018-01-12T00:52:54.936Z,62.10
2018-01-12T00:55:22.720Z,79.50
2018-01-12T00:57:50.532Z,79.93
2018-01-12T01:00:18.244Z,73.10
2018-01-12T01:02:46.076Z,85.63
2018-01-12T01:05:13.839Z,89.70
2018-01-12T01:07:41.595Z,95.63
2018-01-12T01:10:10.393Z,93.13
2018-01-12T01:12:38.196Z,107.60
2018-01-12T01:15:06.019Z,91.27
2018-01-12T01:17:33.800Z,97.20
2018-01-12T01:20:01.623Z,98.90
2018-01-12T01:22:29.443Z,102.20
2018-01-12T01:24:57.297Z,123.03
2018-01-12T01:27:24.918Z,115.13
2018-01-12T01:29:52.730Z,119.10
2018-01-12T01:32:20.468Z,155.30
2018-01-12T01:34:48.293Z,121.63
2018-01-12T01:37:16.037Z,151.40
2018-01-12T01:39:43.895Z,130.20
2018-01-12T01:42:11.614Z,129.57
2018-01-12T01:44:39.485Z,157.13
2018-01-12T01:47:07.177Z,164.63
2018-01-12T01:49:35.018Z,134.63
2018-01-12T01:52:02.744Z,156.30
2018-01-12T01:54:30.571Z,141.07
2018-01-12T01:56:58.206Z,132.50
2018-01-12T01:59:26.085Z,139.87
2018-01-12T02:01:53.893Z,155.70
2018-01-12T02:04:21.716Z,129.53
2018-01-12T02:06:49.466Z,124.67
2018-01-12T02:09:17.157Z,131.93
2018-01-12T02:11:44.935Z,140.43
2018-01-12T02:14:12.763Z,131.60
2018-01-12T02:16:40.538Z,136.03
2018-01-12T02:19:08.329Z,136.60
2018-01-12T02:21:35.968Z,161.00
2018-01-12T02:24:03.806Z,162.30
2018-01-12T02:26:31.543Z,162.33
2018-01-12T02:29:00.179Z,174.80
2018-01-12T02:31:27.946Z,140.97
2018-01-12T02:33:55.751Z,146.20
2018-01-12T02:36:23.484Z,150.57
2018-01-12T02:38:51.340Z,168.37
2018-01-12T02:41:19.070Z,176.80
2018-01-12T02:43:46.899Z,176.63
2018-01-12T02:46:14.557Z,167.87
2018-01-12T02:48:42.204Z,172.70
2018-01-12T02:51:10.059Z,156.77
2018-01-12T02:53:37.688Z,174.87
2018-01-12T02:56:05.517Z,162.60
2018-01-12T02:58:33.246Z,172.63
2018-01-12T03:01:01.076Z,184.83
2018-01-12T03:03:28.827Z,177.27
2018-01-12T03:05:56.649Z,235.37
2018-01-12T03:08:24.393Z,158.97
2018-01-12T03:10:52.095Z,190.83
2018-01-12T03:13:19.732Z,138.37
2018-01-12T03:15:47.584Z,161.67
2018-01-12T03:18:15.222Z,166.20
2018-01-12T03:20:43.058Z,176.57
2018-01-12T03:23:10.793Z,165.10
2018-01-12T03:25:38.468Z,158.97
2018-01-12T03:28:06.251Z,130.23
2018-01-12T03:30:34.088Z,161.40
2018-01-12T03:33:01.731Z,165.10
2018-01-12T03:35:29.559Z,167.97
2018-01-12T03:37:57.283Z,124.90
2018-01-12T03:40:24.961Z,130.03
2018-01-12T03:42:52.758Z,114.40
2018-01-12T03:45:20.608Z,126.33
2018-01-12T03:47:48.340Z,132.00
2018-01-12T03:50:16.050Z,128.83
2018-01-12T03:52:43.689Z,119.27
2018-01-12T03:55:11.542Z,130.53
2018-01-12T03:57:39.172Z,131.30
2018-01-12T04:00:07.004Z,128.17
2018-01-12T04:02:34.656Z,146.37
2018-01-12T04:05:02.474Z,135.33
2018-01-12T04:07:30.099Z,154.83
2018-01-12T04:09:57.934Z,137.70
2018-01-12T04:12:25.677Z,161.07
2018-01-12T04:14:53.364Z,173.20
2018-01-12T04:17:21.189Z,165.00
2018-01-12T04:19:48.967Z,162.63
2018-01-12T04:22:16.600Z,146.17
2018-01-12T04:24:44.459Z,174.60
2018-01-12T04:27:12.091Z,153.90
2018-01-12T04:29:39.921Z,162.40
2018-01-12T04:32:07.606Z,160.57
2018-01-12T04:34:35.302Z,157.70
2018-01-12T04:37:03.148Z,164.73
2018-01-12T04:39:30.896Z,158.80
2018-01-12T04:41:58.722Z,185.03
2018-01-12T04:44:26.459Z,171.20
2018-01-12T04:46:54.159Z,182.10
2018-01-12T04:49:21.928Z,138.10
2018-01-12T04:51:49.759Z,197.03
2018-01-12T04:54:17.506Z,193.47
2018-01-12T04:56:45.338Z,188.87
2018-01-12T04:59:13.080Z,209.40
2018-01-12T05:01:40.909Z,267.77
2018-01-12T05:04:08.544Z,226.53
2018-01-12T05:06:36.243Z,191.97
2018-01-12T05:09:04.077Z,221.37
2018-01-12T05:11:31.940Z,225.87
2018-01-12T05:13:59.586Z,208.23
2018-01-12T05:16:27.384Z,163.20
2018-01-12T05:18:55.169Z,213.23
2018-01-12T05:21:22.863Z,215.83
2018-01-12T05:23:50.610Z,256.67
2018-01-12T05:26:18.441Z,186.43
2018-01-12T05:28:46.187Z,259.27
2018-01-12T05:31:14.013Z,283.10
2018-01-12T05:33:41.677Z,191.17
2018-01-12T05:36:09.487Z,279.60
2018-01-12T05:38:37.159Z,253.30
2018-01-12T05:41:04.841Z,210.23
2018-01-12T05:43:32.604Z,245.23
2018-01-12T05:46:00.299Z,179.57
2018-01-12T05:48:28.078Z,227.37
2018-01-12T05:50:55.885Z,183.33
2018-01-12T05:53:23.642Z,169.77
2018-01-12T05:55:51.328Z,206.57
2018-01-12T05:58:19.106Z,147.87
2018-01-12T06:03:57.613Z,234.10
2018-01-12T06:06:25.451Z,253.27
2018-01-12T06:08:53.181Z,217.10
2018-01-12T06:11:21.032Z,231.77
2018-01-12T06:13:48.771Z,192.13
2018-01-12T06:16:16.622Z,196.53
2018-01-12T06:18:44.416Z,195.37
2018-01-12T06:21:12.275Z,204.67
2018-01-12T06:23:39.999Z,197.37
2018-01-12T06:26:07.832Z,197.60
2018-01-12T06:28:35.566Z,167.47
2018-01-12T06:31:03.388Z,228.87
2018-01-12T06:33:31.131Z,193.47
2018-01-12T06:35:58.956Z,173.23
2018-01-12T06:38:26.597Z,197.23
2018-01-12T06:40:54.401Z,165.70
2018-01-12T06:43:22.075Z,132.70
2018-01-12T06:45:49.866Z,161.53
2018-01-12T06:48:17.568Z,124.90
2018-01-12T06:50:45.192Z,153.63
2018-01-12T06:53:12.961Z,126.50
2018-01-12T06:55:40.693Z,136.37
2018-01-12T06:58:08.517Z,135.57
2018-01-12T07:00:36.217Z,136.83
2018-01-12T07:03:03.987Z,131.53
2018-01-12T07:05:31.616Z,135.77
2018-01-12T07:07:59.303Z,130.73
2018-01-12T07:10:27.085Z,143.53
2018-01-12T07:12:54.776Z,151.03
2018-01-12T07:15:22.576Z,139.43
2018-01-12T07:17:50.460Z,114.27
2018-01-12T07:20:29.873Z,119.63
2018-01-12T07:23:09.426Z,129.47
2018-01-12T07:25:37.068Z,150.07
2018-01-12T07:28:04.879Z,131.93
2018-01-12T07:30:32.505Z,160.27
2018-01-12T07:33:00.305Z,144.27
2018-01-12T07:35:28.051Z,130.90
2018-01-12T07:37:55.743Z,139.33
2018-01-12T07:40:23.536Z,118.77
2018-01-12T07:42:51.340Z,124.97
2018-01-12T07:45:19.087Z,127.10
2018-01-12T07:47:46.924Z,134.77
2018-01-12T07:50:14.684Z,167.47
2018-01-12T07:52:47.982Z,163.20
2018-01-12T07:55:15.770Z,100.07
2018-01-12T07:57:43.603Z,139.17
2018-01-12T08:00:11.438Z,122.60
2018-01-12T08:02:44.855Z,124.90
2018-01-12T08:05:12.656Z,126.43
2018-01-12T08:07:40.365Z,105.33
2018-01-12T08:10:09.125Z,132.33
2018-01-12T08:12:37.010Z,128.30
2018-01-12T08:15:04.656Z,127.83
2018-01-12T08:17:32.359Z,105.93
2018-01-12T08:20:00.019Z,114.97
2018-01-12T08:22:27.708Z,120.93
2018-01-12T08:24:55.516Z,101.00
2018-01-12T08:27:23.346Z,112.13
2018-01-12T08:29:50.983Z,105.07
2018-01-12T08:32:18.670Z,112.93
2018-01-12T08:34:46.296Z,98.20
2018-01-12T08:37:14.494Z,105.27
2018-01-12T08:39:42.129Z,110.43
2018-01-12T08:42:09.953Z,89.13
2018-01-12T08:44:37.824Z,89.53
2018-01-12T08:47:05.578Z,87.93
2018-01-12T08:49:33.285Z,102.33
2018-01-12T08:52:00.933Z,106.80
2018-01-12T08:54:28.609Z,86.63
2018-01-12T08:56:56.263Z,88.17
2018-01-12T08:59:23.968Z,83.37
2018-01-12T09:01:51.593Z,87.07
2018-01-12T09:04:19.284Z,76.97
2018-01-12T09:06:46.913Z,70.00
2018-01-12T09:09:14.610Z,77.10
2018-01-12T09:11:42.251Z,79.23
2018-01-12T09:17:12.925Z,78.73
2018-01-12T09:19:48.622Z,66.30
2018-01-12T09:22:28.243Z,84.00
2018-01-12T09:24:55.927Z,79.87
2018-01-12T09:27:23.743Z,75.50
2018-01-12T09:29:51.566Z,81.13
2018-01-12T09:32:19.352Z,71.80
2018-01-12T09:35:05.984Z,73.67
2018-01-12T09:37:40.542Z,65.87
2018-01-12T09:40:22.092Z,58.03
2018-01-12T09:42:49.764Z,62.00
2018-01-12T09:45:17.471Z,65.30
2018-01-12T09:50:50.378Z,64.17
2018-01-12T09:53:18.129Z,72.03
2018-01-12T09:55:45.820Z,76.37
2018-01-12T09:58:13.561Z,78.47
2018-01-12T10:01:00.275Z,62.57
2018-01-12T10:03:27.969Z,62.17
2018-01-12T10:05:55.684Z,65.07
2018-01-12T10:08:26.143Z,57.07
2018-01-12T10:10:53.787Z,66.27
2018-01-12T10:13:21.538Z,63.73
2018-01-12T10:15:49.173Z,64.57
2018-01-12T10:18:28.850Z,61.90
2018-01-12T10:20:56.619Z,73.40
2018-01-12T10:23:24.374Z,57.87
2018-01-12T10:25:52.069Z,65.20
2018-01-12T10:28:19.842Z,73.20
2018-01-12T10:30:58.523Z,75.90
2018-01-12T10:33:58.916Z,62.27
2018-01-12T10:36:36.667Z,62.57
2018-01-12T10:39:04.460Z,55.60
2018-01-12T10:44:35.486Z,63.77
2018-01-12T10:47:16.683Z,56.60
2018-01-12T10:50:11.205Z,50.60
2018-01-12T10:52:54.684Z,54.33
2018-01-12T10:55:22.499Z,62.83
2018-01-12T10:57:50.238Z,57.47
2018-01-12T11:00:25.757Z,59.23
2018-01-12T11:02:53.473Z,65.10
2018-01-12T11:05:21.251Z,71.40
2018-01-12T11:07:49.068Z,68.20
2018-01-12T11:10:16.832Z,64.30
2018-01-12T11:12:44.541Z,59.67
2018-01-12T11:15:12.315Z,71.03
2018-01-12T11:17:40.102Z,64.93
2018-01-12T11:20:07.858Z,62.60
2018-01-12T11:22:35.571Z,60.60
2018-01-12T11:25:03.340Z,62.30
2018-01-12T11:27:31.043Z,53.20
2018-01-12T11:29:58.820Z,63.53
2018-01-12T11:32:26.632Z,59.57
2018-01-12T11:34:54.327Z,57.67
2018-01-12T11:37:22.043Z,68.67
2018-01-12T11:39:49.787Z,51.63
2018-01-12T11:42:17.480Z,60.83
2018-01-12T11:44:45.192Z,53.03
2018-01-12T11:47:12.891Z,56.30
2018-01-12T11:49:40.653Z,56.13
2018-01-12T11:52:08.373Z,56.80
2018-01-12T11:54:36.117Z,50.43
2018-01-12T11:57:03.830Z,57.60
2018-01-12T11:59:31.593Z,46.07
2018-01-12T12:01:59.354Z,55.93
2018-01-12T12:04:27.106Z,53.10
2018-01-12T12:06:54.739Z,49.93
2018-01-12T12:09:22.421Z,40.87
2018-01-12T12:11:50.129Z,36.07
2018-01-12T12:14:17.908Z,46.53
2018-01-12T12:16:45.680Z,39.77
2018-01-12T12:19:13.574Z,37.27
2018-01-12T12:21:41.243Z,47.87
2018-01-12T12:24:08.930Z,43.97
2018-01-12T12:26:36.715Z,44.20
2018-01-12T12:29:04.427Z,47.87
2018-01-12T12:31:32.190Z,42.50
2018-01-12T12:33:59.908Z,45.77
2018-01-12T12:36:27.599Z,45.37
2018-01-12T12:38:55.238Z,34.20
2018-01-12T12:41:24.966Z,45.63
2018-01-12T12:43:53.542Z,43.13
2018-01-12T12:46:21.238Z,44.30
2018-01-12T12:48:48.869Z,36.27
2018-01-12T12:51:16.560Z,40.87
2018-01-12T12:53:44.198Z,39.67
2018-01-12T12:56:11.900Z,42.73
2018-01-12T12:58:39.528Z,48.00
2018-01-12T13:01:07.224Z,43.07
2018-01-12T13:03:34.861Z,43.77
2018-01-12T13:06:02.547Z,40.80
2018-01-12T13:08:30.177Z,30.47
2018-01-12T13:10:57.850Z,36.73
2018-01-12T13:13:25.485Z,39.93
2018-01-12T13:15:53.203Z,39.10
2018-01-12T13:18:20.961Z,23.50
2018-01-12T13:20:48.707Z,30.73
2018-01-12T13:23:16.416Z,32.67
2018-01-12T13:25:44.157Z,36.47
2018-01-12T13:28:11.868Z,41.40
2018-01-12T13:30:39.540Z,41.73
2018-01-12T13:33:07.159Z,34.10
2018-01-12T13:35:34.918Z,32.60
2018-01-12T13:38:02.564Z,37.23
2018-01-12T13:40:30.310Z,31.20
2018-01-12T13:42:58.007Z,34.33
2018-01-12T13:45:25.749Z,36.47
2018-01-12T13:47:53.439Z,35.67
2018-01-12T13:50:21.322Z,33.83
2018-01-12T13:52:49.024Z,38.57
2018-01-12T13:55:16.715Z,33.53
2018-01-12T13:57:44.364Z,24.90
2018-01-12T14:00:12.049Z,31.67
2018-01-12T14:02:39.704Z,31.97
2018-01-12T14:05:07.340Z,32.13
2018-01-12T14:07:35.050Z,32.23
2018-01-12T14:10:02.685Z,35.83
2018-01-12T14:12:30.367Z,27.73
2018-01-12T14:14:57.996Z,33.57
2018-01-12T14:17:25.685Z,29.93
2018-01-12T14:19:53.327Z,29.37
2018-01-12T14:22:21.035Z,25.97
2018-01-12T14:24:48.672Z,32.43
2018-01-12T14:27:16.355Z,30.73
2018-01-12T14:29:44.046Z,25.10
2018-01-12T14:32:11.803Z,30.03
2018-01-12T14:34:39.522Z,29.37
2018-01-12T14:37:07.261Z,32.17
2018-01-12T14:39:34.973Z,33.10
2018-01-12T14:42:02.686Z,30.60
2018-01-12T14:44:31.395Z,30.20
2018-01-12T14:46:59.154Z,31.10
2018-01-12T14:49:26.886Z,29.37
2018-01-12T14:51:54.579Z,31.40
2018-01-12T14:54:22.287Z,28.10
2018-01-12T14:56:49.990Z,27.10
2018-01-12T14:59:17.642Z,29.97
2018-01-12T15:01:45.329Z,28.70
2018-01-12T15:04:13.056Z,27.87
2018-01-12T15:06:40.834Z,29.27
2018-01-12T15:09:08.554Z,29.63
2018-01-12T15:11:36.318Z,27.37
2018-01-12T15:14:04.005Z,29.80
2018-01-12T15:16:31.804Z,32.77
2018-01-12T15:18:59.558Z,31.17
2018-01-12T15:21:27.248Z,31.63
2018-01-12T15:23:55.200Z,29.67
2018-01-12T15:26:22.902Z,26.50
2018-01-12T15:28:50.582Z,30.10
2018-01-12T15:31:18.263Z,30.27
2018-01-12T15:33:45.972Z,28.33
2018-01-12T15:36:13.654Z,26.00
2018-01-12T15:38:41.431Z,31.80
2018-01-12T15:41:09.166Z,28.40
2018-01-12T15:43:36.865Z,25.43
2018-01-12T15:46:04.504Z,28.43
2018-01-12T15:48:32.204Z,28.80
2018-01-12T15:50:59.849Z,32.17
2018-01-12T15:53:27.594Z,29.50
2018-01-12T15:55:55.273Z,28.83
2018-01-12T15:58:22.972Z,30.73
2018-01-12T16:00:50.631Z,33.20
2018-01-12T16:03:18.332Z,31.17
2018-01-12T16:05:46.012Z,31.87
2018-01-12T16:08:13.719Z,34.37
2018-01-12T16:10:41.390Z,35.70
2018-01-12T16:13:09.109Z,36.50
2018-01-12T16:15:36.742Z,31.87
2018-01-12T16:18:04.564Z,32.80
2018-01-12T16:20:32.240Z,33.07
2018-01-12T16:22:59.928Z,37.07
2018-01-12T16:25:27.560Z,34.43
2018-01-12T16:27:55.239Z,35.73
2018-01-12T16:30:22.882Z,35.70
2018-01-12T16:32:50.585Z,39.33
2018-01-12T16:35:18.248Z,36.93
2018-01-12T16:37:45.919Z,37.67
2018-01-12T16:40:13.564Z,30.90
2018-01-12T16:42:41.240Z,38.33
2018-01-12T16:45:09.709Z,37.37
2018-01-12T16:47:37.467Z,34.10
2018-01-12T16:50:05.194Z,32.70
2018-01-12T16:52:32.945Z,35.77
2018-01-12T16:55:00.589Z,33.77
2018-01-12T16:57:28.490Z,33.20
2018-01-12T16:59:56.226Z,37.70
2018-01-12T17:02:23.963Z,35.90
2018-01-12T17:04:51.673Z,33.83
2018-01-12T17:07:19.370Z,36.87
2018-01-12T17:09:47.015Z,38.50
2018-01-12T17:12:14.761Z,37.93
2018-01-12T17:14:42.481Z,39.73
2018-01-12T17:17:10.270Z,37.17
2018-01-12T17:19:37.980Z,38.57
2018-01-12T17:22:05.725Z,38.27
2018-01-12T17:24:33.366Z,35.47
2018-01-12T17:27:01.008Z,35.57
2018-01-12T17:29:28.746Z,40.17
2018-01-12T17:31:56.411Z,38.30
2018-01-12T17:34:24.150Z,37.80
2018-01-12T17:36:51.780Z,37.83
2018-01-12T17:39:19.452Z,36.10
2018-01-12T17:41:47.134Z,39.90
2018-01-12T17:44:14.872Z,35.40
2018-01-12T17:46:42.501Z,41.27
2018-01-12T17:49:10.206Z,36.27
2018-01-12T17:51:37.908Z,39.97
2018-01-12T17:54:05.665Z,36.73
2018-01-12T17:56:33.372Z,38.80
2018-01-12T17:59:01.118Z,36.53
2018-01-12T18:01:28.809Z,35.57
2018-01-12T18:03:56.557Z,40.40
2018-01-12T18:06:24.223Z,39.63
2018-01-12T18:08:51.911Z,47.57
2018-01-12T18:11:19.534Z,39.43
2018-01-12T18:13:47.204Z,40.80
2018-01-12T18:16:14.836Z,45.97
2018-01-12T18:18:42.527Z,38.87
2018-01-12T18:21:10.161Z,43.20
2018-01-12T18:23:37.917Z,45.30
2018-01-12T18:26:05.626Z,40.23
2018-01-12T18:28:33.384Z,43.20
2018-01-12T18:31:01.102Z,42.43
2018-01-12T18:33:28.837Z,40.03
2018-01-12T18:35:56.541Z,41.63
2018-01-12T18:38:24.295Z,45.23
2018-01-12T18:40:51.984Z,47.00
2018-01-12T18:43:19.728Z,43.40
2018-01-12T18:45:48.394Z,41.00
2018-01-12T18:48:16.164Z,44.17
2018-01-12T18:50:43.802Z,47.20
2018-01-12T18:53:11.548Z,41.00
2018-01-12T18:55:39.244Z,44.57
2018-01-12T18:58:06.988Z,45.43
2018-01-12T19:00:34.683Z,39.37
2018-01-12T19:03:02.544Z,45.70
2018-01-12T19:05:30.201Z,35.30
2018-01-12T19:07:57.897Z,46.80
2018-01-12T19:10:25.662Z,36.33
2018-01-12T19:12:53.565Z,45.53
2018-01-12T19:15:21.335Z,39.17
2018-01-12T19:17:49.076Z,42.13
2018-01-12T19:20:16.889Z,40.77
2018-01-12T19:22:44.635Z,39.10
2018-01-12T19:25:12.375Z,41.23
2018-01-12T19:27:40.092Z,35.60
2018-01-12T19:30:07.832Z,46.90
2018-01-12T19:32:35.539Z,39.83
2018-01-12T19:35:03.332Z,46.37
2018-01-12T19:37:31.075Z,43.07
2018-01-12T19:39:58.830Z,39.00
2018-01-12T19:42:26.520Z,39.53
2018-01-12T19:44:54.343Z,37.07
2018-01-12T19:47:22.053Z,42.10
2018-01-12T19:49:49.803Z,36.60
2018-01-12T19:52:17.432Z,35.17
2018-01-12T19:54:45.189Z,36.40
2018-01-12T19:57:12.907Z,44.70
2018-01-12T19:59:40.669Z,45.53
2018-01-12T20:02:08.370Z,35.90
2018-01-12T20:04:36.110Z,36.70
2018-01-12T20:07:03.752Z,38.10
2018-01-12T20:09:31.517Z,43.27
2018-01-12T20:11:59.223Z,36.17
2018-01-12T20:14:27.001Z,34.97
2018-01-12T20:16:54.749Z,38.77
2018-01-12T20:19:22.553Z,39.73
2018-01-12T20:21:50.255Z,35.60
2018-01-12T20:24:18.019Z,31.53
2018-01-12T20:26:45.765Z,36.30
2018-01-12T20:29:13.443Z,36.00
2018-01-12T20:31:41.141Z,33.77
2018-01-12T20:34:08.970Z,33.97
2018-01-12T20:36:36.689Z,36.10
2018-01-12T20:39:04.474Z,32.57
2018-01-12T20:41:32.103Z,35.73
2018-01-12T20:44:00.098Z,33.10
2018-01-12T20:46:27.834Z,37.20
2018-01-12T20:48:55.520Z,36.33
2018-01-12T20:51:23.270Z,36.80
2018-01-12T20:53:50.996Z,32.80
2018-01-12T20:56:18.803Z,30.33
2018-01-12T20:58:46.502Z,33.73
2018-01-12T21:01:14.184Z,33.70
2018-01-12T21:03:41.896Z,32.50
2018-01-12T21:06:09.702Z,34.23
2018-01-12T21:08:37.414Z,33.10
2018-01-12T21:11:05.197Z,31.80
2018-01-12T21:13:32.939Z,33.70
2018-01-12T21:16:00.759Z,29.00
2018-01-12T21:18:28.552Z,36.63
2018-01-12T21:20:56.367Z,34.23
2018-01-12T21:23:24.130Z,30.97
2018-01-12T21:25:51.896Z,34.57
2018-01-12T21:28:19.640Z,29.27
2018-01-12T21:30:47.397Z,30.93
2018-01-12T21:33:15.123Z,32.20
2018-01-12T21:35:42.883Z,33.90
2018-01-12T21:38:10.591Z,31.83
2018-01-12T21:40:38.345Z,30.17
2018-01-12T21:43:05.971Z,29.87
2018-01-12T21:45:33.659Z,32.70
2018-01-12T21:48:08.307Z,31.23
2018-01-12T21:50:36.176Z,30.60
2018-01-12T21:53:03.918Z,31.33
2018-01-12T21:55:31.691Z,33.43
2018-01-12T21:57:59.344Z,34.50
2018-01-12T22:00:27.150Z,29.53
2018-01-12T22:02:54.778Z,30.23
2018-01-12T22:05:22.578Z,34.63
2018-01-12T22:07:50.246Z,29.97
2018-01-12T22:10:17.923Z,30.90
2018-01-12T22:12:45.604Z,29.30
2018-01-12T22:15:13.298Z,28.93
2018-01-12T22:17:40.917Z,28.90
2018-01-12T22:20:08.590Z,30.03
2018-01-12T22:22:36.238Z,34.00
2018-01-12T22:25:04.021Z,29.03
2018-01-12T22:27:31.699Z,28.10
2018-01-12T22:29:59.368Z,32.53
2018-01-12T22:32:27.060Z,33.37
2018-01-12T22:34:54.711Z,33.30
2018-01-12T22:37:22.383Z,28.97
2018-01-12T22:39:50.028Z,30.23
2018-01-12T22:42:17.728Z,30.10
2018-01-12T22:44:45.402Z,30.13
2018-01-12T22:47:13.076Z,29.73
2018-01-12T22:49:40.760Z,32.10
2018-01-12T22:52:08.447Z,34.13
2018-01-12T22:54:36.154Z,29.27
2018-01-12T22:57:03.829Z,34.70
2018-01-12T22:59:31.533Z,35.10
2018-01-12T23:01:59.263Z,28.67
2018-01-12T23:04:26.967Z,41.33
2018-01-12T23:06:54.737Z,35.07
2018-01-12T23:09:22.365Z,29.90
2018-01-12T23:11:50.102Z,34.13
2018-01-12T23:14:17.799Z,34.10
2018-01-12T23:16:45.482Z,34.20
2018-01-12T23:19:13.270Z,37.87
2018-01-12T23:21:41.003Z,35.70
2018-01-12T23:24:08.689Z,30.50
2018-01-12T23:26:36.475Z,38.13
2018-01-12T23:29:04.121Z,36.63
2018-01-12T23:31:31.873Z,35.00
2018-01-12T23:33:59.566Z,35.70
2018-01-12T23:36:27.309Z,31.30
2018-01-12T23:38:55.016Z,36.80
2018-01-12T23:41:22.759Z,38.73
2018-01-12T23:43:50.504Z,35.10
2018-01-12T23:46:18.253Z,34.67
2018-01-12T23:48:45.993Z,33.93
2018-01-12T23:51:13.785Z,36.97
2018-01-12T23:53:41.490Z,38.40
2018-01-12T23:56:09.174Z,39.10
2018-01-12T23:58:36.885Z,39.53
